createdAt,value
2022-08-31T00:00:20.688Z,18.60
2022-08-31T00:01:11.147Z,18.60
2022-08-31T00:02:01.827Z,18.60
2022-08-31T00:02:52.286Z,18.50
2022-08-31T00:03:42.810Z,18.60
2022-08-31T00:04:14.780Z,18.60
2022-08-31T00:04:46.676Z,18.60
2022-08-31T00:05:18.652Z,18.60
2022-08-31T00:05:50.537Z,18.70
2022-08-31T00:06:23.466Z,18.50
2022-08-31T00:06:55.261Z,18.50
2022-08-31T00:07:31.573Z,18.50
2022-08-31T00:08:03.688Z,15.40
2022-08-31T00:08:36.381Z,18.50
2022-08-31T00:09:08.353Z,18.50
2022-08-31T00:09:40.211Z,18.50
2022-08-31T00:10:18.338Z,18.50
2022-08-31T00:10:50.238Z,18.40
2022-08-31T00:11:28.518Z,18.60
2022-08-31T00:12:00.963Z,18.40
2022-08-31T00:12:32.746Z,18.40
2022-08-31T00:13:06.821Z,18.40
2022-08-31T00:13:39.255Z,19.90
2022-08-31T00:14:13.326Z,18.40
2022-08-31T00:14:45.452Z,18.40
2022-08-31T00:15:22.048Z,18.40
2022-08-31T00:15:57.661Z,18.40
2022-08-31T00:16:32.720Z,18.40
2022-08-31T00:17:07.212Z,18.40
2022-08-31T00:17:40.070Z,18.40
2022-08-31T00:18:12.314Z,18.30
2022-08-31T00:18:44.108Z,18.30
2022-08-31T00:19:16.399Z,18.30
2022-08-31T00:19:48.179Z,18.30
2022-08-31T00:20:33.969Z,18.30
2022-08-31T00:21:06.448Z,18.30
2022-08-31T00:21:39.158Z,18.30
2022-08-31T00:22:11.407Z,18.30
2022-08-31T00:22:43.279Z,18.30
2022-08-31T00:23:17.263Z,18.30
2022-08-31T00:23:49.938Z,18.30
2022-08-31T00:24:21.860Z,18.30
2022-08-31T00:24:53.622Z,18.30
2022-08-31T00:25:25.472Z,18.30
2022-08-31T00:25:57.838Z,18.30
2022-08-31T00:26:29.693Z,17.50
2022-08-31T00:27:02.038Z,18.30
2022-08-31T00:27:34.106Z,18.30
2022-08-31T00:28:07.875Z,18.30
2022-08-31T00:28:39.696Z,18.30
2022-08-31T00:29:12.375Z,18.20
2022-08-31T00:29:44.168Z,18.20
2022-08-31T00:30:16.375Z,18.30
2022-08-31T00:30:48.751Z,18.30
2022-08-31T00:31:20.809Z,18.30
2022-08-31T00:31:53.021Z,18.30
2022-08-31T00:32:28.717Z,18.20
2022-08-31T00:33:01.435Z,18.20
2022-08-31T00:33:33.300Z,18.20
2022-08-31T00:34:05.443Z,18.30
2022-08-31T00:34:37.287Z,18.30
2022-08-31T00:35:09.611Z,18.20
2022-08-31T00:35:42.860Z,18.20
2022-08-31T00:36:14.675Z,18.20
2022-08-31T00:36:47.467Z,18.20
2022-08-31T00:37:19.917Z,18.20
2022-08-31T00:37:51.725Z,18.20
2022-08-31T00:38:23.505Z,18.20
2022-08-31T00:38:57.006Z,18.20
2022-08-31T00:39:29.017Z,18.20
2022-08-31T00:40:01.008Z,18.20
2022-08-31T00:40:38.173Z,18.20
2022-08-31T00:41:20.743Z,18.20
2022-08-31T00:41:52.512Z,19.80
2022-08-31T00:42:26.518Z,18.10
2022-08-31T00:43:00.409Z,18.10
2022-08-31T00:43:45.084Z,15.70
2022-08-31T00:44:17.228Z,18.10
2022-08-31T00:44:49.374Z,18.20
2022-08-31T00:45:22.111Z,20.30
2022-08-31T00:45:54.072Z,18.10
2022-08-31T00:46:30.602Z,18.10
2022-08-31T00:47:02.835Z,18.10
2022-08-31T00:47:34.722Z,18.10
2022-08-31T00:48:06.513Z,18.20
2022-08-31T00:48:48.600Z,18.10
2022-08-31T00:49:34.471Z,18.20
2022-08-31T00:50:10.406Z,18.10
2022-08-31T00:50:42.352Z,18.10
2022-08-31T00:51:18.545Z,18.10
2022-08-31T00:51:58.201Z,18.10
2022-08-31T00:52:37.635Z,18.10
2022-08-31T00:53:10.040Z,18.10
2022-08-31T00:53:42.137Z,18.10
2022-08-31T00:54:17.421Z,18.10
2022-08-31T00:54:59.688Z,18.10
2022-08-31T00:55:36.883Z,18.10
2022-08-31T00:56:09.346Z,18.10
2022-08-31T00:56:44.723Z,18.00
2022-08-31T00:57:17.061Z,18.00
2022-08-31T00:57:56.945Z,18.00
2022-08-31T00:58:28.905Z,18.00
2022-08-31T00:59:01.016Z,18.00
2022-08-31T00:59:33.384Z,18.00
2022-08-31T01:00:11.110Z,18.00
2022-08-31T01:00:43.278Z,18.00
2022-08-31T01:01:15.646Z,18.10
2022-08-31T01:01:50.097Z,18.00
2022-08-31T01:02:22.049Z,18.00
2022-08-31T01:02:56.431Z,18.00
2022-08-31T01:03:28.196Z,18.00
2022-08-31T01:04:00.087Z,18.00
2022-08-31T01:04:33.451Z,18.00
2022-08-31T01:05:07.205Z,18.00
2022-08-31T01:05:41.280Z,17.90
2022-08-31T01:06:14.897Z,17.90
2022-08-31T01:06:48.369Z,18.20
2022-08-31T01:07:20.229Z,17.90
2022-08-31T01:07:53.180Z,17.80
2022-08-31T01:08:29.583Z,20.50
2022-08-31T01:09:05.937Z,17.90
2022-08-31T01:09:43.514Z,17.90
2022-08-31T01:10:33.203Z,17.90
2022-08-31T01:11:05.134Z,17.90
2022-08-31T01:11:39.922Z,17.90
2022-08-31T01:12:12.662Z,17.90
2022-08-31T01:12:47.840Z,17.80
2022-08-31T01:13:22.630Z,17.80
2022-08-31T01:13:58.487Z,17.80
2022-08-31T01:14:30.538Z,17.90
2022-08-31T01:15:04.895Z,17.80
2022-08-31T01:15:37.617Z,17.80
2022-08-31T01:16:16.079Z,17.80
2022-08-31T01:16:52.276Z,17.80
2022-08-31T01:17:24.193Z,17.80
2022-08-31T01:17:59.386Z,17.80
2022-08-31T01:18:33.353Z,17.80
2022-08-31T01:19:11.914Z,17.80
2022-08-31T01:19:58.542Z,17.80
2022-08-31T01:21:00.031Z,17.80
2022-08-31T01:21:52.893Z,17.70
2022-08-31T01:22:55.609Z,18.70
2022-08-31T01:23:32.871Z,17.70
2022-08-31T01:24:06.822Z,17.70
2022-08-31T01:24:41.743Z,17.70
2022-08-31T01:25:15.225Z,17.70
2022-08-31T01:25:49.117Z,17.70
2022-08-31T01:26:25.526Z,17.70
2022-08-31T01:27:04.734Z,17.70
2022-08-31T01:27:37.806Z,17.70
2022-08-31T01:28:10.715Z,17.70
2022-08-31T01:28:43.203Z,17.60
2022-08-31T01:29:14.970Z,17.70
2022-08-31T01:29:49.250Z,17.70
2022-08-31T01:30:24.472Z,17.70
2022-08-31T01:31:00.789Z,17.60
2022-08-31T01:31:40.372Z,17.90
2022-08-31T01:32:12.394Z,17.60
2022-08-31T01:32:44.278Z,16.40
2022-08-31T01:33:16.097Z,17.60
2022-08-31T01:33:48.496Z,17.60
2022-08-31T01:34:20.694Z,17.60
2022-08-31T01:34:52.478Z,17.60
2022-08-31T01:35:25.574Z,17.60
2022-08-31T01:35:59.139Z,17.60
2022-08-31T01:36:34.244Z,17.60
2022-08-31T01:37:06.272Z,17.60
2022-08-31T01:37:38.461Z,17.60
2022-08-31T01:38:10.903Z,17.60
2022-08-31T01:38:43.610Z,17.70
2022-08-31T01:39:15.481Z,17.50
2022-08-31T01:39:47.293Z,17.50
2022-08-31T01:40:19.339Z,17.50
2022-08-31T01:40:58.312Z,17.50
2022-08-31T01:41:30.243Z,17.50
2022-08-31T01:42:02.103Z,17.50
2022-08-31T01:42:34.361Z,17.60
2022-08-31T01:43:06.409Z,17.50
2022-08-31T01:43:39.846Z,17.50
2022-08-31T01:44:14.563Z,17.50
2022-08-31T01:44:46.374Z,17.50
2022-08-31T01:45:18.243Z,17.60
2022-08-31T01:45:50.621Z,17.50
2022-08-31T01:46:23.213Z,17.50
2022-08-31T01:46:55.427Z,17.50
2022-08-31T01:47:27.280Z,17.50
2022-08-31T01:48:00.098Z,17.50
2022-08-31T01:48:32.652Z,17.50
2022-08-31T01:49:04.977Z,17.40
2022-08-31T01:49:36.870Z,17.40
2022-08-31T01:50:09.847Z,17.50
2022-08-31T01:50:42.033Z,17.50
2022-08-31T01:51:16.481Z,17.50
2022-08-31T01:51:50.071Z,17.40
2022-08-31T01:52:22.103Z,17.60
2022-08-31T01:52:56.313Z,17.50
2022-08-31T01:53:28.627Z,17.40
2022-08-31T01:54:00.866Z,17.40
2022-08-31T01:54:33.108Z,17.40
2022-08-31T01:55:07.074Z,17.40
2022-08-31T01:55:39.792Z,17.40
2022-08-31T01:56:19.887Z,17.40
2022-08-31T01:56:51.695Z,17.30
2022-08-31T01:57:34.205Z,17.40
2022-08-31T01:58:22.142Z,17.40
2022-08-31T01:59:08.785Z,17.40
2022-08-31T01:59:49.321Z,17.40
2022-08-31T02:00:43.991Z,18.00
2022-08-31T02:01:34.051Z,17.40
2022-08-31T02:02:07.029Z,17.40
2022-08-31T02:02:41.963Z,17.30
2022-08-31T02:03:15.107Z,17.40
2022-08-31T02:03:47.144Z,17.30
2022-08-31T02:04:21.452Z,17.30
2022-08-31T02:04:53.266Z,17.30
2022-08-31T02:05:25.290Z,17.30
2022-08-31T02:06:27.936Z,17.30
2022-08-31T02:07:00.960Z,17.40
2022-08-31T02:07:33.259Z,17.30
2022-08-31T02:08:08.352Z,17.30
2022-08-31T02:08:40.524Z,17.30
2022-08-31T02:09:14.155Z,17.30
2022-08-31T02:09:45.933Z,17.30
2022-08-31T02:10:17.879Z,17.20
2022-08-31T02:10:49.740Z,17.20
2022-08-31T02:11:21.607Z,17.20
2022-08-31T02:11:53.613Z,17.20
2022-08-31T02:12:25.418Z,18.70
2022-08-31T02:12:58.391Z,17.20
2022-08-31T02:13:36.238Z,17.20
2022-08-31T02:14:08.726Z,17.20
2022-08-31T02:14:40.678Z,17.20
2022-08-31T02:15:12.634Z,17.20
2022-08-31T02:15:45.989Z,17.10
2022-08-31T02:16:20.361Z,17.10
2022-08-31T02:16:52.382Z,17.10
2022-08-31T02:17:24.256Z,17.10
2022-08-31T02:17:56.052Z,17.20
2022-08-31T02:18:28.669Z,17.10
2022-08-31T02:19:00.444Z,17.10
2022-08-31T02:19:32.302Z,17.10
2022-08-31T02:20:07.349Z,17.10
2022-08-31T02:20:39.229Z,17.10
2022-08-31T02:21:13.471Z,17.10
2022-08-31T02:21:46.097Z,17.10
2022-08-31T02:22:18.146Z,17.10
2022-08-31T02:22:49.945Z,17.20
2022-08-31T02:23:21.797Z,17.10
2022-08-31T02:23:54.771Z,17.10
2022-08-31T02:24:30.070Z,17.10
2022-08-31T02:25:02.030Z,17.10
2022-08-31T02:25:33.811Z,17.10
2022-08-31T02:26:08.542Z,17.10
2022-08-31T02:26:40.580Z,17.00
2022-08-31T02:27:12.855Z,17.00
2022-08-31T02:27:44.812Z,17.10
2022-08-31T02:28:18.841Z,17.00
2022-08-31T02:28:50.665Z,17.00
2022-08-31T02:29:22.688Z,17.00
2022-08-31T02:29:54.645Z,17.00
2022-08-31T02:30:27.141Z,17.00
2022-08-31T02:30:58.976Z,17.00
2022-08-31T02:31:30.922Z,17.00
2022-08-31T02:32:05.327Z,17.00
2022-08-31T02:32:37.266Z,17.00
2022-08-31T02:33:10.168Z,17.00
2022-08-31T02:33:41.978Z,17.10
2022-08-31T02:34:14.054Z,17.00
2022-08-31T02:34:45.859Z,17.00
2022-08-31T02:35:17.822Z,17.00
2022-08-31T02:35:51.809Z,17.00
2022-08-31T02:36:26.074Z,16.90
2022-08-31T02:36:58.794Z,17.10
2022-08-31T02:37:31.003Z,16.90
2022-08-31T02:38:05.644Z,16.90
2022-08-31T02:38:38.953Z,16.90
2022-08-31T02:39:11.544Z,16.90
2022-08-31T02:39:44.638Z,16.90
2022-08-31T02:40:17.194Z,16.90
2022-08-31T02:40:50.772Z,18.20
2022-08-31T02:41:23.342Z,16.90
2022-08-31T02:41:55.273Z,16.80
2022-08-31T02:42:31.193Z,16.90
2022-08-31T02:43:24.356Z,16.90
2022-08-31T02:43:58.771Z,16.90
2022-08-31T02:44:30.620Z,16.90
2022-08-31T02:45:02.615Z,17.00
2022-08-31T02:45:34.829Z,18.00
2022-08-31T02:46:12.840Z,16.80
2022-08-31T02:46:49.583Z,17.60
2022-08-31T02:47:56.977Z,16.80
2022-08-31T02:48:33.051Z,16.80
2022-08-31T02:49:05.824Z,16.80
2022-08-31T02:49:37.606Z,16.80
2022-08-31T02:50:10.002Z,16.80
2022-08-31T02:50:45.132Z,16.80
2022-08-31T02:51:16.995Z,16.80
2022-08-31T02:51:51.950Z,16.80
2022-08-31T02:52:24.205Z,16.70
2022-08-31T02:52:56.820Z,16.80
2022-08-31T02:53:28.746Z,16.70
2022-08-31T02:54:00.608Z,16.70
2022-08-31T02:54:32.462Z,16.70
2022-08-31T02:55:05.072Z,16.80
2022-08-31T02:55:37.470Z,16.70
2022-08-31T02:56:09.582Z,16.70
2022-08-31T02:56:41.826Z,16.70
2022-08-31T02:57:13.866Z,16.70
2022-08-31T02:57:45.640Z,16.70
2022-08-31T02:58:23.819Z,17.20
2022-08-31T02:58:56.032Z,16.80
2022-08-31T02:59:29.386Z,16.70
2022-08-31T03:00:02.988Z,16.70
2022-08-31T03:00:36.046Z,16.60
2022-08-31T03:01:07.978Z,16.80
2022-08-31T03:01:40.893Z,16.60
2022-08-31T03:02:13.794Z,16.60
2022-08-31T03:02:45.808Z,16.60
2022-08-31T03:03:18.741Z,16.60
2022-08-31T03:03:51.062Z,16.60
2022-08-31T03:04:22.854Z,16.60
2022-08-31T03:04:54.665Z,16.60
2022-08-31T03:05:27.637Z,16.60
2022-08-31T03:05:59.570Z,16.60
2022-08-31T03:06:32.574Z,16.60
2022-08-31T03:07:06.150Z,16.60
2022-08-31T03:07:38.747Z,16.60
2022-08-31T03:08:10.737Z,16.60
2022-08-31T03:08:42.672Z,16.60
2022-08-31T03:09:15.805Z,16.60
2022-08-31T03:09:47.854Z,16.60
2022-08-31T03:10:22.431Z,16.60
2022-08-31T03:10:54.930Z,16.60
2022-08-31T03:11:27.334Z,16.60
2022-08-31T03:12:00.001Z,16.50
2022-08-31T03:12:31.988Z,16.50
2022-08-31T03:13:04.234Z,16.50
2022-08-31T03:13:38.232Z,16.50
2022-08-31T03:14:10.122Z,16.50
2022-08-31T03:14:42.094Z,16.50
2022-08-31T03:15:15.282Z,16.50
2022-08-31T03:15:47.676Z,16.60
2022-08-31T03:16:21.839Z,16.50
2022-08-31T03:16:54.225Z,16.40
2022-08-31T03:17:26.181Z,16.50
2022-08-31T03:17:58.302Z,16.50
2022-08-31T03:18:30.261Z,16.50
2022-08-31T03:19:02.143Z,16.50
2022-08-31T03:19:34.523Z,16.50
2022-08-31T03:20:09.205Z,16.50
2022-08-31T03:20:41.099Z,16.50
2022-08-31T03:21:12.963Z,16.40
2022-08-31T03:21:46.770Z,16.50
2022-08-31T03:22:19.174Z,16.40
2022-08-31T03:22:52.842Z,16.50
2022-08-31T03:23:25.216Z,16.50
2022-08-31T03:23:58.552Z,16.50
2022-08-31T03:24:31.293Z,16.50
2022-08-31T03:25:04.824Z,16.40
2022-08-31T03:25:36.679Z,16.40
2022-08-31T03:26:11.602Z,16.40
2022-08-31T03:26:44.256Z,16.40
2022-08-31T03:27:16.045Z,16.40
2022-08-31T03:27:50.839Z,16.40
2022-08-31T03:28:23.086Z,16.30
2022-08-31T03:29:24.129Z,16.30
2022-08-31T03:29:59.738Z,16.40
2022-08-31T03:30:34.881Z,16.30
2022-08-31T03:31:11.597Z,16.30
2022-08-31T03:31:43.871Z,16.30
2022-08-31T03:32:15.637Z,16.30
2022-08-31T03:32:51.004Z,16.30
2022-08-31T03:33:24.342Z,16.30
2022-08-31T03:33:57.387Z,16.30
2022-08-31T03:34:29.247Z,16.30
2022-08-31T03:35:02.315Z,16.30
2022-08-31T03:35:34.609Z,16.30
2022-08-31T03:36:07.150Z,16.30
2022-08-31T03:36:39.007Z,16.30
2022-08-31T03:37:10.896Z,16.30
2022-08-31T03:37:43.200Z,16.30
2022-08-31T03:38:16.918Z,16.20
2022-08-31T03:38:48.810Z,16.20
2022-08-31T03:39:20.797Z,16.20
2022-08-31T03:39:52.943Z,16.20
2022-08-31T03:40:24.954Z,16.20
2022-08-31T03:40:56.878Z,16.20
2022-08-31T03:41:28.818Z,16.10
2022-08-31T03:42:00.771Z,16.20
2022-08-31T03:42:32.641Z,16.10
2022-08-31T03:43:05.184Z,16.10
2022-08-31T03:43:37.293Z,16.20
2022-08-31T03:44:09.250Z,16.20
2022-08-31T03:44:42.362Z,16.20
2022-08-31T03:45:23.975Z,16.10
2022-08-31T03:45:55.831Z,16.20
2022-08-31T03:46:29.386Z,16.10
2022-08-31T03:47:01.245Z,16.10
2022-08-31T03:47:33.079Z,16.10
2022-08-31T03:48:11.430Z,16.10
2022-08-31T03:48:49.378Z,16.10
2022-08-31T03:49:22.393Z,16.10
2022-08-31T03:50:18.552Z,16.10
2022-08-31T03:51:11.623Z,16.10
2022-08-31T03:51:43.629Z,16.10
2022-08-31T03:52:16.913Z,16.10
2022-08-31T03:52:54.113Z,16.10
2022-08-31T03:53:27.678Z,16.10
2022-08-31T03:54:01.556Z,16.10
2022-08-31T03:54:33.546Z,16.10
2022-08-31T03:55:07.516Z,16.10
2022-08-31T03:55:41.805Z,16.00
2022-08-31T03:56:14.769Z,16.00
2022-08-31T03:56:46.906Z,16.00
2022-08-31T03:57:18.729Z,16.10
2022-08-31T03:57:50.607Z,15.90
2022-08-31T03:58:23.182Z,16.00
2022-08-31T03:58:55.111Z,16.40
2022-08-31T03:59:57.462Z,16.00
2022-08-31T04:00:47.052Z,16.00
2022-08-31T04:01:39.431Z,16.00
2022-08-31T04:02:35.435Z,16.00
2022-08-31T04:03:29.354Z,16.00
2022-08-31T04:04:24.068Z,15.90
2022-08-31T04:05:36.791Z,16.20
2022-08-31T04:06:32.241Z,15.90
2022-08-31T04:07:22.816Z,15.90
2022-08-31T04:08:32.657Z,15.90
2022-08-31T04:09:23.246Z,15.90
2022-08-31T04:10:14.816Z,15.80
2022-08-31T04:11:17.301Z,15.80
2022-08-31T04:11:52.186Z,17.00
2022-08-31T04:12:44.054Z,16.30
2022-08-31T04:13:34.961Z,14.80
2022-08-31T04:14:25.496Z,16.90
2022-08-31T04:15:29.783Z,15.90
2022-08-31T04:16:35.756Z,15.80
2022-08-31T04:17:33.656Z,15.80
2022-08-31T04:18:25.437Z,19.50
2022-08-31T04:18:57.741Z,16.00
2022-08-31T04:19:31.521Z,15.80
2022-08-31T04:20:19.808Z,13.70
2022-08-31T04:21:02.256Z,15.90
2022-08-31T04:21:34.084Z,15.80
2022-08-31T04:22:05.869Z,15.80
2022-08-31T04:22:43.467Z,16.20
2022-08-31T04:23:33.430Z,15.90
2022-08-31T04:24:05.311Z,15.80
2022-08-31T04:24:37.138Z,15.80
2022-08-31T04:25:10.306Z,15.80
2022-08-31T04:25:43.062Z,15.80
2022-08-31T04:26:21.641Z,15.80
2022-08-31T04:26:54.157Z,15.80
2022-08-31T04:27:26.090Z,15.70
2022-08-31T04:27:58.422Z,16.10
2022-08-31T04:28:31.272Z,15.80
2022-08-31T04:29:06.857Z,15.80
2022-08-31T04:29:41.470Z,15.80
2022-08-31T04:30:13.635Z,15.80
2022-08-31T04:30:45.760Z,15.80
2022-08-31T04:31:22.613Z,15.70
2022-08-31T04:31:55.210Z,15.70
2022-08-31T04:32:28.264Z,16.20
2022-08-31T04:33:02.091Z,15.70
2022-08-31T04:33:33.957Z,15.60
2022-08-31T04:34:07.836Z,15.60
2022-08-31T04:34:39.889Z,15.70
2022-08-31T04:35:11.859Z,15.50
2022-08-31T04:35:44.948Z,15.70
2022-08-31T04:36:22.287Z,15.60
2022-08-31T04:36:57.134Z,16.20
2022-08-31T04:37:30.874Z,15.60
2022-08-31T04:38:02.902Z,15.60
2022-08-31T04:38:35.995Z,15.60
2022-08-31T04:39:09.450Z,15.90
2022-08-31T04:39:50.987Z,16.20
2022-08-31T04:40:26.104Z,15.60
2022-08-31T04:41:02.787Z,15.60
2022-08-31T04:41:38.197Z,16.00
2022-08-31T04:42:11.990Z,16.70
2022-08-31T04:42:44.903Z,15.60
2022-08-31T04:43:16.697Z,15.60
2022-08-31T04:43:52.056Z,15.80
2022-08-31T04:44:23.975Z,16.00
2022-08-31T04:45:01.331Z,15.90
2022-08-31T04:45:33.387Z,15.60
2022-08-31T04:46:07.499Z,14.20
2022-08-31T04:46:39.844Z,15.50
2022-08-31T04:47:11.743Z,15.90
2022-08-31T04:47:44.189Z,15.70
2022-08-31T04:48:15.999Z,15.80
2022-08-31T04:48:48.963Z,15.60
2022-08-31T04:49:20.796Z,15.50
2022-08-31T04:49:52.650Z,15.40
2022-08-31T04:50:24.526Z,15.50
2022-08-31T04:51:10.044Z,15.50
2022-08-31T04:51:42.496Z,15.50
2022-08-31T04:52:14.325Z,15.50
2022-08-31T04:53:03.393Z,15.60
2022-08-31T04:53:43.208Z,15.50
2022-08-31T04:54:15.108Z,15.40
2022-08-31T04:54:47.201Z,15.40
2022-08-31T04:55:19.189Z,15.30
2022-08-31T04:55:51.273Z,15.40
2022-08-31T04:56:27.187Z,16.40
2022-08-31T04:56:59.207Z,15.60
2022-08-31T04:57:36.233Z,15.60
2022-08-31T04:58:08.238Z,16.40
2022-08-31T04:58:48.386Z,15.40
2022-08-31T04:59:25.922Z,15.40
2022-08-31T05:00:13.075Z,15.30
2022-08-31T05:01:19.147Z,15.40
2022-08-31T05:02:10.042Z,15.40
2022-08-31T05:02:48.889Z,15.30
2022-08-31T05:03:23.713Z,15.30
2022-08-31T05:04:00.607Z,15.30
2022-08-31T05:04:32.452Z,15.30
2022-08-31T05:05:06.070Z,15.40
2022-08-31T05:05:39.469Z,15.30
2022-08-31T05:06:16.807Z,15.60
2022-08-31T05:06:48.600Z,15.30
2022-08-31T05:07:20.402Z,15.30
2022-08-31T05:07:53.191Z,14.20
2022-08-31T05:08:25.673Z,15.30
2022-08-31T05:09:01.122Z,16.60
2022-08-31T05:09:32.994Z,15.30
2022-08-31T05:10:05.621Z,15.10
2022-08-31T05:10:37.485Z,15.20
2022-08-31T05:11:14.297Z,15.20
2022-08-31T05:11:46.730Z,15.20
2022-08-31T05:12:19.088Z,15.20
2022-08-31T05:12:52.066Z,15.20
2022-08-31T05:13:25.826Z,15.20
2022-08-31T05:14:00.835Z,15.20
2022-08-31T05:14:35.814Z,15.10
2022-08-31T05:15:15.139Z,15.50
2022-08-31T05:15:47.006Z,15.20
2022-08-31T05:16:25.262Z,15.10
2022-08-31T05:16:57.926Z,15.20
2022-08-31T05:17:29.740Z,15.20
2022-08-31T05:18:01.896Z,15.10
2022-08-31T05:18:39.271Z,15.10
2022-08-31T05:19:11.382Z,15.10
2022-08-31T05:19:44.024Z,15.10
2022-08-31T05:20:18.509Z,15.00
2022-08-31T05:20:51.342Z,16.80
2022-08-31T05:21:29.460Z,15.10
2022-08-31T05:22:01.693Z,15.00
2022-08-31T05:22:35.662Z,15.50
2022-08-31T05:23:07.532Z,15.00
2022-08-31T05:23:40.719Z,15.20
2022-08-31T05:24:14.083Z,14.90
2022-08-31T05:24:48.148Z,15.80
2022-08-31T05:25:20.001Z,17.50
2022-08-31T05:25:53.122Z,15.40
2022-08-31T05:26:30.618Z,15.70
2022-08-31T05:27:02.897Z,15.00
2022-08-31T05:27:36.230Z,14.90
2022-08-31T05:28:08.931Z,15.00
2022-08-31T05:28:40.902Z,15.00
2022-08-31T05:29:14.356Z,15.00
2022-08-31T05:29:46.926Z,14.90
2022-08-31T05:30:47.774Z,14.90
2022-08-31T05:31:52.419Z,15.10
2022-08-31T05:32:25.478Z,15.50
2022-08-31T05:32:59.691Z,15.30
2022-08-31T05:33:31.536Z,14.80
2022-08-31T05:34:04.209Z,18.80
2022-08-31T05:34:43.346Z,16.60
2022-08-31T05:35:15.365Z,15.00
2022-08-31T05:35:49.080Z,16.90
2022-08-31T05:36:21.436Z,14.60
2022-08-31T05:36:56.834Z,14.90
2022-08-31T05:37:28.771Z,14.90
2022-08-31T05:38:00.594Z,15.50
2022-08-31T05:38:32.552Z,14.90
2022-08-31T05:39:09.287Z,15.30
2022-08-31T05:39:41.159Z,15.20
2022-08-31T05:40:13.182Z,15.10
2022-08-31T05:40:53.496Z,14.80
2022-08-31T05:41:26.263Z,14.90
2022-08-31T05:41:58.852Z,15.60
2022-08-31T05:42:30.706Z,14.90
2022-08-31T05:43:02.544Z,15.20
2022-08-31T05:43:34.731Z,14.90
2022-08-31T05:44:07.846Z,16.40
2022-08-31T05:44:42.145Z,14.90
2022-08-31T05:45:14.066Z,14.70
2022-08-31T05:45:47.423Z,16.30
2022-08-31T05:46:19.293Z,14.90
2022-08-31T05:46:57.601Z,15.00
2022-08-31T05:47:35.154Z,15.90
2022-08-31T05:48:06.977Z,14.70
2022-08-31T05:48:41.695Z,14.80
2022-08-31T05:49:21.225Z,14.80
2022-08-31T05:49:53.146Z,15.00
2022-08-31T05:50:26.383Z,14.80
2022-08-31T05:51:07.674Z,15.50
2022-08-31T05:51:43.297Z,14.80
2022-08-31T05:52:15.340Z,14.80
2022-08-31T05:52:48.137Z,15.60
2022-08-31T05:53:20.428Z,16.10
2022-08-31T05:53:52.513Z,14.80
2022-08-31T05:54:26.007Z,14.80
2022-08-31T05:54:57.851Z,15.10
2022-08-31T05:55:31.296Z,15.20
2022-08-31T05:56:14.357Z,14.70
2022-08-31T05:56:46.142Z,14.80
2022-08-31T05:57:21.449Z,14.80
2022-08-31T05:57:57.456Z,14.60
2022-08-31T05:58:30.661Z,15.00
2022-08-31T05:59:03.261Z,14.70
2022-08-31T05:59:39.062Z,14.70
2022-08-31T06:00:12.191Z,14.90
2022-08-31T06:00:50.487Z,14.70
2022-08-31T06:01:42.756Z,14.80
2022-08-31T06:02:17.522Z,15.40
2022-08-31T06:02:53.816Z,14.70
2022-08-31T06:03:26.032Z,15.10
2022-08-31T06:04:00.190Z,14.70
2022-08-31T06:04:32.109Z,14.60
2022-08-31T06:05:04.620Z,14.70
2022-08-31T06:05:36.542Z,14.70
2022-08-31T06:06:09.760Z,14.70
2022-08-31T06:06:41.646Z,14.70
2022-08-31T06:07:16.776Z,15.00
2022-08-31T06:07:57.945Z,14.60
2022-08-31T06:08:30.733Z,16.10
2022-08-31T06:09:02.735Z,15.30
2022-08-31T06:09:35.382Z,16.20
2022-08-31T06:10:07.959Z,14.60
2022-08-31T06:10:39.953Z,14.70
2022-08-31T06:11:17.504Z,14.50
2022-08-31T06:11:50.843Z,11.80
2022-08-31T06:12:25.622Z,14.90
2022-08-31T06:12:59.099Z,11.00
2022-08-31T06:13:31.250Z,15.10
2022-08-31T06:14:05.568Z,15.30
2022-08-31T06:14:38.790Z,15.90
2022-08-31T06:15:11.906Z,16.70
2022-08-31T06:15:44.975Z,14.60
2022-08-31T06:16:17.955Z,14.60
2022-08-31T06:16:50.035Z,14.60
2022-08-31T06:17:24.548Z,15.90
2022-08-31T06:17:57.268Z,15.40
2022-08-31T06:18:30.919Z,11.30
2022-08-31T06:19:07.083Z,14.60
2022-08-31T06:19:40.386Z,14.60
2022-08-31T06:20:17.052Z,14.80
2022-08-31T06:20:50.775Z,14.60
2022-08-31T06:21:27.966Z,14.50
2022-08-31T06:21:59.758Z,14.60
2022-08-31T06:22:35.366Z,14.60
2022-08-31T06:23:09.552Z,14.60
2022-08-31T06:23:51.746Z,14.60
2022-08-31T06:24:25.211Z,14.60
2022-08-31T06:24:57.213Z,14.60
2022-08-31T06:25:28.969Z,14.60
2022-08-31T06:26:13.102Z,14.60
2022-08-31T06:26:58.436Z,14.60
2022-08-31T06:27:38.758Z,15.60
2022-08-31T06:28:15.278Z,14.60
2022-08-31T06:28:49.737Z,15.00
2022-08-31T06:29:22.296Z,14.70
2022-08-31T06:29:54.991Z,14.90
2022-08-31T06:30:27.897Z,14.60
2022-08-31T06:31:02.461Z,14.70
2022-08-31T06:31:47.106Z,14.60
2022-08-31T06:32:21.974Z,14.60
2022-08-31T06:33:01.066Z,14.70
2022-08-31T06:33:43.245Z,14.60
2022-08-31T06:34:21.953Z,14.80
2022-08-31T06:35:20.215Z,14.60
2022-08-31T06:36:21.279Z,14.60
2022-08-31T06:37:06.346Z,14.60
2022-08-31T06:37:38.138Z,14.90
2022-08-31T06:38:32.880Z,14.90
2022-08-31T06:39:23.977Z,14.60
2022-08-31T06:40:02.930Z,14.60
2022-08-31T06:40:42.187Z,14.60
2022-08-31T06:41:39.029Z,15.40
2022-08-31T06:42:31.864Z,14.60
2022-08-31T06:43:15.922Z,14.70
2022-08-31T06:44:08.331Z,14.50
2022-08-31T06:44:58.034Z,16.00
2022-08-31T06:45:42.548Z,14.90
2022-08-31T06:46:34.872Z,14.70
2022-08-31T06:47:14.054Z,14.90
2022-08-31T06:47:47.163Z,14.60
2022-08-31T06:48:19.713Z,14.60
2022-08-31T06:48:57.590Z,15.80
2022-08-31T06:49:29.598Z,16.10
2022-08-31T06:50:03.149Z,15.30
2022-08-31T06:50:35.130Z,14.70
2022-08-31T06:51:08.308Z,15.10
2022-08-31T06:51:40.455Z,15.90
2022-08-31T06:52:14.351Z,14.60
2022-08-31T06:52:48.549Z,14.60
2022-08-31T06:53:29.512Z,14.60
2022-08-31T06:54:28.973Z,14.60
2022-08-31T06:55:20.561Z,14.60
2022-08-31T06:55:55.175Z,16.00
2022-08-31T06:56:45.662Z,15.90
2022-08-31T06:57:55.430Z,14.60
2022-08-31T06:58:45.885Z,14.60
2022-08-31T06:59:40.846Z,14.70
2022-08-31T07:00:38.664Z,14.60
2022-08-31T07:01:35.373Z,17.00
2022-08-31T07:02:37.446Z,14.70
2022-08-31T07:03:32.892Z,14.70
2022-08-31T07:04:08.906Z,15.10
2022-08-31T07:04:41.701Z,14.70
2022-08-31T07:05:24.297Z,14.70
2022-08-31T07:05:57.032Z,14.70
2022-08-31T07:06:34.063Z,16.20
2022-08-31T07:07:11.164Z,14.70
2022-08-31T07:07:43.854Z,14.70
2022-08-31T07:08:15.977Z,14.70
2022-08-31T07:08:56.297Z,16.10
2022-08-31T07:09:28.343Z,15.30
2022-08-31T07:10:00.190Z,14.70
2022-08-31T07:10:34.827Z,16.30
2022-08-31T07:11:15.096Z,14.70
2022-08-31T07:11:51.194Z,14.80
2022-08-31T07:12:23.274Z,14.70
2022-08-31T07:12:55.102Z,14.70
2022-08-31T07:13:27.041Z,15.30
2022-08-31T07:13:59.496Z,14.80
2022-08-31T07:14:32.734Z,14.80
2022-08-31T07:15:06.170Z,14.80
2022-08-31T07:15:38.203Z,14.80
2022-08-31T07:16:13.580Z,15.00
2022-08-31T07:16:46.613Z,14.80
2022-08-31T07:17:18.458Z,14.80
2022-08-31T07:17:51.732Z,14.80
2022-08-31T07:18:23.572Z,16.20
2022-08-31T07:19:01.411Z,15.40
2022-08-31T07:19:33.283Z,15.30
2022-08-31T07:20:08.412Z,14.80
2022-08-31T07:20:41.087Z,14.80
2022-08-31T07:21:25.595Z,14.80
2022-08-31T07:22:01.079Z,14.80
2022-08-31T07:22:33.806Z,14.70
2022-08-31T07:23:27.629Z,14.80
2022-08-31T07:24:10.176Z,16.20
2022-08-31T07:24:42.127Z,14.90
2022-08-31T07:25:15.182Z,15.20
2022-08-31T07:25:46.985Z,14.90
2022-08-31T07:26:25.433Z,16.40
2022-08-31T07:27:00.561Z,15.60
2022-08-31T07:27:39.956Z,15.60
2022-08-31T07:28:13.123Z,14.90
2022-08-31T07:28:45.646Z,14.90
2022-08-31T07:29:21.007Z,16.00
2022-08-31T07:29:52.815Z,14.90
2022-08-31T07:30:25.856Z,15.00
2022-08-31T07:31:03.749Z,14.90
2022-08-31T07:31:44.586Z,14.90
2022-08-31T07:32:17.468Z,14.90
2022-08-31T07:32:50.397Z,15.40
2022-08-31T07:33:28.462Z,12.00
2022-08-31T07:34:07.826Z,15.00
2022-08-31T07:34:45.129Z,14.90
2022-08-31T07:35:37.166Z,15.00
2022-08-31T07:36:25.887Z,15.00
2022-08-31T07:37:24.101Z,15.50
2022-08-31T07:38:15.169Z,15.00
2022-08-31T07:39:05.682Z,15.20
2022-08-31T07:39:57.791Z,15.10
2022-08-31T07:40:49.405Z,15.10
2022-08-31T07:41:43.160Z,15.10
2022-08-31T07:42:20.201Z,15.50
2022-08-31T07:42:52.125Z,15.10